Flag for Germany

Past Weather in 50°44'02.0"N, 7°05'58.9"E, Germany — Yesterday and Last 2 Weeks

Currently: 50 °F. Passing clouds. (Weather station: Koeln / Bonn, Germany). See more current weather

Past Weather in 50°44'02.0"N, 7°05'58.9"E — Graph

°F

50°44'02.0"N, 7°05'58.9"E Temperature Yesterday

Maximum temperature yesterday: 54 °F (at 3:20 pm)
Minimum temperature yesterday: 41 °F (at 5:50 am)
Average temperature yesterday: 47 °F

High & Low Weather Summary for the Past Weeks

 TemperatureHumidityPressure
High61 °F (Feb 15, 1:50 pm)100% (Feb 7, 7:20 am)30.54 "Hg (Feb 7, 7:20 am)
Low34 °F (Feb 13, 7:20 am)54% (Feb 13, 1:50 pm)29.12 "Hg (Feb 10, 11:50 pm)
Average48 °F85%29.86 "Hg
* Reported Feb 6 12:20 pm — Feb 21 12:20 pm, 50°44'02.0"N, 7°05'58.9"E. Weather by CustomWeather, © 2024

Note: Actual official high and low records may vary slightly from our data, if they occured in-between our weather recording intervals... More about our weather records

50°44'02.0"N, 7°05'58.9"E Weather History for the Previous 24 Hours

Scroll right to see more
 ConditionsComfort  
Time TempWeatherWind HumidityBarometerVisibility
12:20 pm
Wed, Feb 21
50 °FPassing clouds.9 mph67%30.07 "HgN/A
11:50 am50 °FPassing clouds.9 mph67%30.07 "HgN/A
11:20 am48 °FSunny.8 mph71%30.07 "Hg10 mi
10:50 am48 °FSunny.9 mph71%30.09 "Hg10 mi
10:20 am48 °FPartly sunny.12 mph71%30.09 "HgN/A
9:50 am48 °FOvercast.14 mph71%30.12 "HgN/A
9:20 am46 °FOvercast.12 mph76%30.12 "HgN/A
8:50 am46 °FPartly sunny.12 mph76%30.12 "HgN/A
8:20 am46 °FMostly cloudy.10 mph76%30.12 "HgN/A
7:50 am46 °FOvercast.7 mph82%30.15 "HgN/A
7:20 am46 °FOvercast.7 mph76%30.15 "HgN/A
6:50 am46 °FOvercast.7 mph82%30.15 "HgN/A
6:20 am46 °FOvercast.6 mph82%30.15 "HgN/A
5:50 am46 °FOvercast.9 mph82%30.15 "HgN/A
5:20 am46 °FOvercast.8 mph82%30.18 "HgN/A
4:50 am46 °FOvercast.8 mph82%30.18 "HgN/A
4:20 am46 °FOvercast.8 mph82%30.18 "HgN/A
3:50 am46 °FOvercast.7 mph82%30.18 "HgN/A
3:20 am46 °FOvercast.6 mph82%30.21 "HgN/A
2:50 am46 °FMostly cloudy.5 mph82%30.21 "HgN/A
2:20 am48 °FMostly cloudy.6 mph71%30.24 "HgN/A
1:50 am48 °FPassing clouds.5 mph71%30.24 "HgN/A
12:20 am48 °FOvercast.6 mph71%30.27 "HgN/A
11:50 pm
Tue, Feb 20
48 °FOvercast.7 mph71%30.27 "HgN/A
11:20 pm48 °FOvercast.7 mph71%30.27 "HgN/A
10:50 pm46 °FOvercast.6 mph76%30.30 "HgN/A
10:20 pm48 °FOvercast.7 mph71%30.30 "HgN/A
9:50 pm46 °FOvercast.8 mph76%30.30 "HgN/A
9:20 pm46 °FPassing clouds.7 mph76%30.30 "HgN/A
8:50 pm43 °FPassing clouds.7 mph81%30.30 "HgN/A
8:20 pm45 °FClear.7 mph81%30.30 "Hg10 mi
7:50 pm46 °FClear.8 mph76%30.30 "Hg10 mi
7:20 pm48 °FClear.8 mph71%30.30 "Hg10 mi
6:50 pm46 °FPassing clouds.6 mph71%30.33 "HgN/A
6:20 pm48 °FPassing clouds.6 mph71%30.30 "HgN/A
5:50 pm48 °FPassing clouds.9 mph71%30.30 "HgN/A
5:20 pm50 °FSunny.8 mph71%30.30 "Hg10 mi
4:50 pm52 °FScattered clouds.10 mph67%30.30 "HgN/A
4:20 pm52 °FBroken clouds.9 mph67%30.33 "HgN/A
3:50 pm54 °FPartly sunny.12 mph63%30.33 "HgN/A
3:20 pm54 °FPassing clouds.10 mph67%30.33 "HgN/A
2:50 pm52 °FPassing clouds.14 mph67%30.33 "HgN/A
2:20 pm52 °FPassing clouds.14 mph67%30.36 "HgN/A
1:50 pm52 °FScattered clouds.13 mph67%30.36 "HgN/A
1:20 pm50 °FPassing clouds.10 mph76%30.36 "HgN/A
Weather by CustomWeather, © 2024

See weather overview